N999EU VNKT-VNLK
Flight info
| Callsign | N999EU |
|---|---|
| Flight time | 0h 31m |
| Altitude | 19000 |
| Route | IGRIS1E KIMTI DCT VNPL |
| Aircraft | C414/L-SBDFGRY/S |
Departure
| Time | 2026-04-21 07:12 |
|---|---|
| Airport | Tribhuvan International Airport (VNKT) |
Arrival
| Time | 2026-04-21 07:43 |
|---|---|
| Airport | Tenzing-Hillary Airport (VNLK) |
| Time | Latitude | Longitude | Altitude | Speed | Heading |
|---|---|---|---|---|---|
| 2026-04-21 07:00 | 27.69815 | 85.36189 | 4364 ft | 0 kts | 302° |
| 2026-04-21 07:07 | 27.69818 | 85.36184 | 4364 ft | 4 kts | 304° |
| 2026-04-21 07:08 | 27.69832 | 85.36154 | 4358 ft | 4 kts | 332° |
| 2026-04-21 07:08 | 27.69857 | 85.36153 | 4365 ft | 8 kts | 356° |
| 2026-04-21 07:08 | 27.69920 | 85.36141 | 4362 ft | 9 kts | 358° |
| 2026-04-21 07:08 | 27.69989 | 85.36156 | 4368 ft | 12 kts | 23° |
| 2026-04-21 07:09 | 27.70078 | 85.36153 | 4371 ft | 15 kts | 342° |
| 2026-04-21 07:09 | 27.70185 | 85.36151 | 4374 ft | 18 kts | 13° |
| 2026-04-21 07:09 | 27.70304 | 85.36205 | 4379 ft | 19 kts | 22° |
| 2026-04-21 07:09 | 27.70417 | 85.36257 | 4384 ft | 17 kts | 21° |
| 2026-04-21 07:10 | 27.70518 | 85.36311 | 4388 ft | 20 kts | 26° |
| 2026-04-21 07:10 | 27.70685 | 85.36390 | 4392 ft | 31 kts | 32° |
| 2026-04-21 07:10 | 27.70793 | 85.36438 | 4395 ft | 6 kts | 266° |
| 2026-04-21 07:10 | 27.70657 | 85.36363 | 4391 ft | 50 kts | 201° |
| 2026-04-21 07:11 | 27.70193 | 85.36169 | 4404 ft | 88 kts | 207° |
| 2026-04-21 07:11 | 27.69564 | 85.35958 | 4536 ft | 104 kts | 201° |
| 2026-04-21 07:11 | 27.68858 | 85.35613 | 4620 ft | 126 kts | 215° |
| 2026-04-21 07:11 | 27.67991 | 85.35157 | 4705 ft | 154 kts | 205° |
| 2026-04-21 07:12 | 27.66975 | 85.34687 | 4858 ft | 168 kts | 207° |
| 2026-04-21 07:12 | 27.66022 | 85.33971 | 5147 ft | 168 kts | 227° |
| 2026-04-21 07:12 | 27.65337 | 85.32955 | 5416 ft | 169 kts | 245° |
| 2026-04-21 07:12 | 27.64972 | 85.31722 | 5684 ft | 170 kts | 264° |
| 2026-04-21 07:13 | 27.64976 | 85.30422 | 5938 ft | 171 kts | 281° |
| 2026-04-21 07:13 | 27.65353 | 85.29213 | 6199 ft | 176 kts | 298° |
| 2026-04-21 07:13 | 27.66093 | 85.28132 | 6442 ft | 179 kts | 313° |
| 2026-04-21 07:13 | 27.67069 | 85.27290 | 6693 ft | 188 kts | 329° |
| 2026-04-21 07:14 | 27.68285 | 85.26760 | 6941 ft | 193 kts | 346° |
| 2026-04-21 07:14 | 27.69577 | 85.26646 | 7187 ft | 196 kts | 2° |
| 2026-04-21 07:14 | 27.70912 | 85.26976 | 7446 ft | 200 kts | 19° |
| 2026-04-21 07:14 | 27.72113 | 85.27745 | 7684 ft | 204 kts | 37° |
| 2026-04-21 07:15 | 27.73056 | 85.28901 | 7947 ft | 210 kts | 55° |
| 2026-04-21 07:15 | 27.73704 | 85.30333 | 8185 ft | 210 kts | 65° |
| 2026-04-21 07:15 | 27.74309 | 85.31784 | 8435 ft | 209 kts | 64° |
| 2026-04-21 07:15 | 27.74920 | 85.33240 | 8683 ft | 207 kts | 64° |
| 2026-04-21 07:16 | 27.75486 | 85.34697 | 8926 ft | 205 kts | 71° |
| 2026-04-21 07:16 | 27.75773 | 85.36246 | 9170 ft | 205 kts | 84° |
| 2026-04-21 07:16 | 27.75762 | 85.37832 | 9424 ft | 206 kts | 97° |
| 2026-04-21 07:16 | 27.75456 | 85.39355 | 9667 ft | 204 kts | 110° |
| 2026-04-21 07:17 | 27.74859 | 85.40789 | 9914 ft | 205 kts | 123° |
| 2026-04-21 07:17 | 27.74018 | 85.42021 | 10146 ft | 204 kts | 135° |
| 2026-04-21 07:17 | 27.72957 | 85.43028 | 10379 ft | 203 kts | 148° |
| 2026-04-21 07:17 | 27.71713 | 85.43763 | 10509 ft | 206 kts | 159° |
| 2026-04-21 07:18 | 27.70428 | 85.44365 | 10633 ft | 211 kts | 159° |
| 2026-04-21 07:18 | 27.69116 | 85.45072 | 10748 ft | 213 kts | 153° |
| 2026-04-21 07:18 | 27.67902 | 85.45942 | 10871 ft | 215 kts | 146° |
| 2026-04-21 07:18 | 27.66755 | 85.46994 | 10991 ft | 217 kts | 139° |
| 2026-04-21 07:19 | 27.65735 | 85.48190 | 11123 ft | 218 kts | 132° |
| 2026-04-21 07:19 | 27.64827 | 85.49541 | 11234 ft | 220 kts | 125° |
| 2026-04-21 07:19 | 27.64070 | 85.51007 | 11367 ft | 220 kts | 118° |
| 2026-04-21 07:19 | 27.63476 | 85.52557 | 11490 ft | 223 kts | 111° |
| 2026-04-21 07:20 | 27.63027 | 85.54210 | 11606 ft | 223 kts | 107° |
| 2026-04-21 07:20 | 27.62588 | 85.55832 | 11738 ft | 223 kts | 108° |
| 2026-04-21 07:20 | 27.62135 | 85.57494 | 11856 ft | 224 kts | 108° |
| 2026-04-21 07:20 | 27.61703 | 85.59129 | 11977 ft | 224 kts | 107° |
| 2026-04-21 07:21 | 27.61265 | 85.60786 | 12098 ft | 224 kts | 107° |
| 2026-04-21 07:21 | 27.60824 | 85.62439 | 12221 ft | 223 kts | 108° |
| 2026-04-21 07:21 | 27.60396 | 85.64034 | 12341 ft | 223 kts | 108° |
| 2026-04-21 07:21 | 27.59956 | 85.65678 | 12467 ft | 223 kts | 107° |
| 2026-04-21 07:22 | 27.59529 | 85.67283 | 12584 ft | 224 kts | 108° |
| 2026-04-21 07:22 | 27.58986 | 85.68906 | 12705 ft | 223 kts | 113° |
| 2026-04-21 07:22 | 27.58444 | 85.70440 | 12823 ft | 224 kts | 112° |
| 2026-04-21 07:22 | 27.57804 | 85.72039 | 12946 ft | 223 kts | 118° |
| 2026-04-21 07:23 | 27.57125 | 85.73572 | 13071 ft | 222 kts | 117° |
| 2026-04-21 07:23 | 27.56498 | 85.75014 | 13189 ft | 223 kts | 117° |
| 2026-04-21 07:23 | 27.55806 | 85.76590 | 13315 ft | 225 kts | 117° |
| 2026-04-21 07:23 | 27.55130 | 85.78125 | 13438 ft | 226 kts | 117° |
| 2026-04-21 07:24 | 27.54442 | 85.79693 | 13564 ft | 227 kts | 117° |
| 2026-04-21 07:24 | 27.53775 | 85.81202 | 13677 ft | 227 kts | 118° |
| 2026-04-21 07:24 | 27.53088 | 85.82799 | 13795 ft | 227 kts | 113° |
| 2026-04-21 07:24 | 27.52681 | 85.84466 | 13921 ft | 227 kts | 104° |
| 2026-04-21 07:25 | 27.52310 | 85.86151 | 14045 ft | 228 kts | 105° |
| 2026-04-21 07:25 | 27.51912 | 85.87855 | 14164 ft | 228 kts | 105° |
| 2026-04-21 07:25 | 27.51529 | 85.89526 | 14285 ft | 228 kts | 105° |
| 2026-04-21 07:25 | 27.51143 | 85.91234 | 14407 ft | 228 kts | 105° |
| 2026-04-21 07:26 | 27.50941 | 85.92968 | 14526 ft | 227 kts | 92° |
| 2026-04-21 07:26 | 27.50900 | 85.94691 | 14646 ft | 229 kts | 92° |
| 2026-04-21 07:26 | 27.50825 | 85.96457 | 14775 ft | 231 kts | 93° |
| 2026-04-21 07:26 | 27.50757 | 85.98200 | 14898 ft | 232 kts | 92° |
| 2026-04-21 07:27 | 27.50692 | 85.99987 | 15020 ft | 232 kts | 93° |
| 2026-04-21 07:27 | 27.50622 | 86.01740 | 15138 ft | 231 kts | 93° |
| 2026-04-21 07:27 | 27.50554 | 86.03517 | 15253 ft | 234 kts | 93° |
| 2026-04-21 07:27 | 27.50489 | 86.05346 | 15249 ft | 240 kts | 93° |
| 2026-04-21 07:28 | 27.50426 | 86.07173 | 15255 ft | 241 kts | 93° |
| 2026-04-21 07:28 | 27.50354 | 86.09044 | 15260 ft | 243 kts | 93° |
| 2026-04-21 07:28 | 27.50279 | 86.10869 | 15281 ft | 244 kts | 93° |
| 2026-04-21 07:28 | 27.50208 | 86.12752 | 15293 ft | 244 kts | 93° |
| 2026-04-21 07:29 | 27.50140 | 86.14595 | 15309 ft | 244 kts | 93° |
| 2026-04-21 07:29 | 27.50065 | 86.16472 | 15359 ft | 244 kts | 93° |
| 2026-04-21 07:29 | 27.49994 | 86.18314 | 15365 ft | 243 kts | 93° |
| 2026-04-21 07:29 | 27.49924 | 86.20187 | 15376 ft | 244 kts | 93° |
| 2026-04-21 07:30 | 27.49851 | 86.22057 | 15440 ft | 244 kts | 93° |
| 2026-04-21 07:30 | 27.49779 | 86.23911 | 15514 ft | 244 kts | 93° |
| 2026-04-21 07:30 | 27.49722 | 86.25792 | 15542 ft | 244 kts | 89° |
| 2026-04-21 07:30 | 27.50031 | 86.27608 | 15591 ft | 245 kts | 70° |
| 2026-04-21 07:31 | 27.50723 | 86.29322 | 15626 ft | 244 kts | 64° |
| 2026-04-21 07:31 | 27.51421 | 86.30999 | 15660 ft | 244 kts | 64° |
| 2026-04-21 07:31 | 27.52118 | 86.32692 | 15680 ft | 240 kts | 65° |
| 2026-04-21 07:31 | 27.52805 | 86.34360 | 15710 ft | 237 kts | 65° |
| 2026-04-21 07:32 | 27.53476 | 86.35975 | 15733 ft | 230 kts | 64° |
| 2026-04-21 07:32 | 27.54113 | 86.37512 | 15722 ft | 223 kts | 65° |
| 2026-04-21 07:32 | 27.54757 | 86.39068 | 15728 ft | 218 kts | 65° |
| 2026-04-21 07:32 | 27.55383 | 86.40576 | 15707 ft | 215 kts | 64° |
| 2026-04-21 07:33 | 27.55982 | 86.42024 | 15697 ft | 211 kts | 64° |
| 2026-04-21 07:33 | 27.56598 | 86.43522 | 15717 ft | 208 kts | 65° |
| 2026-04-21 07:33 | 27.57163 | 86.44894 | 15951 ft | 202 kts | 64° |
| 2026-04-21 07:33 | 27.57744 | 86.46297 | 16196 ft | 205 kts | 64° |
| 2026-04-21 07:34 | 27.58333 | 86.47722 | 16435 ft | 203 kts | 64° |
| 2026-04-21 07:34 | 27.58900 | 86.49100 | 16677 ft | 203 kts | 64° |
| 2026-04-21 07:34 | 27.59484 | 86.50520 | 16937 ft | 204 kts | 63° |
| 2026-04-21 07:34 | 27.60077 | 86.51955 | 17166 ft | 209 kts | 64° |
| 2026-04-21 07:35 | 27.60680 | 86.53401 | 17414 ft | 207 kts | 65° |
| 2026-04-21 07:35 | 27.61242 | 86.54791 | 17646 ft | 207 kts | 65° |
| 2026-04-21 07:35 | 27.61844 | 86.56256 | 17909 ft | 197 kts | 64° |
| 2026-04-21 07:35 | 27.62367 | 86.57521 | 18101 ft | 171 kts | 64° |
| 2026-04-21 07:36 | 27.62826 | 86.58626 | 18301 ft | 156 kts | 65° |
| 2026-04-21 07:36 | 27.63276 | 86.59722 | 18114 ft | 163 kts | 64° |
| 2026-04-21 07:36 | 27.63742 | 86.60863 | 17814 ft | 173 kts | 64° |
| 2026-04-21 07:36 | 27.64251 | 86.62096 | 17531 ft | 180 kts | 65° |
| 2026-04-21 07:37 | 27.64589 | 86.62918 | 17314 ft | 181 kts | 64° |
| 2026-04-21 07:37 | 27.65270 | 86.64574 | 16922 ft | 182 kts | 64° |
| 2026-04-21 07:37 | 27.65774 | 86.65798 | 16602 ft | 170 kts | 65° |
| 2026-04-21 07:37 | 27.66256 | 86.66970 | 16298 ft | 171 kts | 64° |
| 2026-04-21 07:38 | 27.66746 | 86.68167 | 15982 ft | 170 kts | 65° |
| 2026-04-21 07:38 | 27.67223 | 86.69332 | 15667 ft | 170 kts | 64° |
| 2026-04-21 07:38 | 27.67707 | 86.70525 | 15339 ft | 169 kts | 64° |
| 2026-04-21 07:38 | 27.68034 | 86.71308 | 15134 ft | 168 kts | 63° |
| 2026-04-21 07:39 | 27.68974 | 86.72435 | 15110 ft | 143 kts | 14° |
| 2026-04-21 07:39 | 27.69933 | 86.72419 | 14923 ft | 140 kts | 333° |
| 2026-04-21 07:39 | 27.70418 | 86.71998 | 14785 ft | 139 kts | 304° |
| 2026-04-21 07:39 | 27.70485 | 86.70697 | 14610 ft | 138 kts | 239° |
| 2026-04-21 07:40 | 27.70057 | 86.70172 | 14360 ft | 145 kts | 219° |
| 2026-04-21 07:40 | 27.68767 | 86.69673 | 13788 ft | 155 kts | 192° |
| 2026-04-21 07:40 | 27.68092 | 86.69524 | 13517 ft | 155 kts | 197° |
| 2026-04-21 07:40 | 27.67103 | 86.69114 | 13345 ft | 150 kts | 206° |
| 2026-04-21 07:41 | 27.66107 | 86.68934 | 12793 ft | 164 kts | 167° |
| 2026-04-21 07:41 | 27.65371 | 86.69863 | 12116 ft | 179 kts | 100° |
| 2026-04-21 07:41 | 27.65811 | 86.70951 | 12000 ft | 159 kts | 23° |
| 2026-04-21 07:41 | 27.66846 | 86.71049 | 11514 ft | 163 kts | 352° |
| 2026-04-21 07:42 | 27.67805 | 86.71419 | 11227 ft | 154 kts | 53° |
| 2026-04-21 07:42 | 27.67851 | 86.72435 | 10906 ft | 129 kts | 136° |
| 2026-04-21 07:42 | 27.67172 | 86.72402 | 10681 ft | 121 kts | 224° |
| 2026-04-21 07:42 | 27.66829 | 86.71593 | 10045 ft | 110 kts | 296° |
| 2026-04-21 07:43 | 27.67333 | 86.71162 | 9919 ft | 105 kts | 26° |
| 2026-04-21 07:43 | 27.68007 | 86.71501 | 9641 ft | 123 kts | 41° |
| 2026-04-21 07:43 | 27.68395 | 86.72383 | 9054 ft | 120 kts | 74° |
| 2026-04-21 07:43 | 27.68678 | 86.72928 | 9295 ft | 43 kts | 82° |
| 2026-04-21 07:44 | 27.68722 | 86.73030 | 9351 ft | 3 kts | 61° |
| 2026-04-21 07:44 | 27.68699 | 86.72990 | 9327 ft | 4 kts | 50° |
| 2026-04-21 07:44 | 27.68691 | 86.72982 | 9321 ft | 3 kts | 52° |
| 2026-04-21 07:44 | 27.68674 | 86.72945 | 9301 ft | 10 kts | 58° |
| 2026-04-21 07:45 | 27.68637 | 86.72898 | 9267 ft | 0 kts | 43° |
| 2026-04-21 07:45 | 27.68636 | 86.72897 | 9266 ft | 0 kts | 17° |
| 2026-04-21 07:45 | 27.68633 | 86.72896 | 9263 ft | 0 kts | 4° |